| time (UTC) | temp F | wind direction | speed knots | gust knots | rain 1hr in | rain 24hr in | rain mn in | humidity % | barometer mb |
| 20260506203051 | 55 | 0.0 | 0.0 | 0.00 | 0.00 | 0.00 | 70 | 1009.9 | |
| 20260506201649 | 55 | 0.0 | 0.0 | 0.00 | 0.00 | 0.00 | 70 | 1009.7 | |
| 20260506200059 | 55 | 0.0 | 0.0 | 0.00 | 0.00 | 0.00 | 71 | 1009.5 | |
| 20260506194555 | 55 | 0.0 | 0.0 | 0.00 | 0.00 | 0.00 | 75 | 1009.4 | |
| 20260506193052 | 55 | 0.0 | 0.0 | 0.00 | 0.00 | 0.00 | 75 | 1009.3 | |
| 20260506191648 | 55 | 0.0 | 0.0 | 0.00 | 0.00 | 0.00 | 73 | 1009.2 | |
| 20260506190025 | 56 | 0.0 | 0.0 | 0.00 | 0.00 | 0.00 | 73 | 1009.1 | |
| 20260506184525 | 56 | 0.0 | 0.0 | 0.00 | 0.00 | 0.00 | 73 | 1009.0 | |
| 20260506183037 | 56 | 0.0 | 0.0 | 0.00 | 0.00 | 0.00 | 72 | 1008.9 | |
| 20260506181534 | 56 | 0.0 | 0.0 | 0.00 | 0.00 | 0.00 | 65 | 1008.7 | |
| 20260506180032 | 56 | 0.0 | 0.0 | 0.00 | 0.00 | 0.00 | 63 | 1008.4 | |
| 20260506174524 | 56 | 0.0 | 0.0 | 0.00 | 0.00 | 0.00 | 62 | 1008.3 | |
| 20260506173028 | 56 | 0.0 | 0.0 | 0.00 | 0.00 | 0.00 | 67 | 1008.2 | |
| 20260506171526 | 56 | 57 | 3.5 | 0.0 | 0.00 | 0.00 | 0.00 | 73 | 1008.1 |
| 20260506170026 | 57 | 34 | 4.3 | 0.0 | 0.00 | 0.00 | 0.00 | 72 | 1008.0 |
| 20260506164526 | 58 | 42 | 4.3 | 0.0 | 0.00 | 0.00 | 0.00 | 71 | 1007.9 |
| 20260506163103 | 58 | 65 | 5.2 | 0.0 | 0.00 | 0.00 | 0.00 | 70 | 1007.7 |
| 20260506161610 | 58 | 49 | 4.3 | 0.0 | 0.00 | 0.00 | 0.00 | 70 | 1007.7 |
| 20260506160109 | 58 | 14 | 4.3 | 0.0 | 0.00 | 0.00 | 0.00 | 68 | 1007.7 |
| 20260506154601 | 59 | 80 | 5.2 | 0.0 | 0.00 | 0.00 | 0.00 | 67 | 1007.8 |
| 20260506153001 | 59 | 351 | 5.2 | 0.0 | 0.00 | 0.00 | 0.00 | 68 | 1007.6 |
| 20260506151502 | 59 | 46 | 5.2 | 0.0 | 0.00 | 0.00 | 0.00 | 68 | 1007.5 |
| 20260506150104 | 60 | 48 | 6.1 | 0.0 | 0.00 | 0.00 | 0.00 | 64 | 1007.6 |
| 20260506150002 | 60 | 64 | 6.1 | 0.0 | 0.00 | 0.00 | 0.00 | 64 | 1007.5 |
| 20260506144612 | 61 | 351 | 5.2 | 0.0 | 0.00 | 0.00 | 0.00 | 67 | 1007.4 |
| 20260506143054 | 60 | 9 | 5.2 | 0.0 | 0.00 | 0.00 | 0.00 | 67 | 1007.3 |
| 20260506141551 | 60 | 348 | 5.2 | 0.0 | 0.00 | 0.00 | 0.00 | 64 | 1007.5 |
| 20260506140105 | 60 | 36 | 5.2 | 0.0 | 0.00 | 0.00 | 0.00 | 64 | 1007.5 |
| 20260506134547 | 60 | 348 | 5.2 | 0.0 | 0.00 | 0.00 | 0.00 | 68 | 1007.6 |
| 20260506133035 | 59 | 355 | 6.1 | 0.0 | 0.00 | 0.00 | 0.00 | 69 | 1007.7 |
| 20260506131543 | 59 | 336 | 5.2 | 0.0 | 0.00 | 0.00 | 0.00 | 68 | 1007.6 |
| 20260506130045 | 59 | 336 | 6.1 | 0.0 | 0.00 | 0.00 | 0.00 | 69 | 1007.5 |
| 20260506124534 | 58 | 355 | 4.3 | 0.0 | 0.00 | 0.00 | 0.00 | 70 | 1007.3 |
| 20260506123044 | 58 | 62 | 6.1 | 0.0 | 0.00 | 0.00 | 0.00 | 68 | 1007.3 |
| 20260506121545 | 59 | 355 | 5.2 | 0.0 | 0.00 | 0.00 | 0.00 | 70 | 1007.3 |
| 20260506120037 | 58 | 79 | 5.2 | 0.0 | 0.00 | 0.00 | 0.00 | 74 | 1007.3 |
| 20260506114536 | 57 | 48 | 4.3 | 0.0 | 0.00 | 0.00 | 0.00 | 74 | 1007.2 |
| 20260506113034 | 58 | 51 | 4.3 | 0.0 | 0.00 | 0.00 | 0.00 | 74 | 1007.2 |
| 20260506111532 | 59 | 346 | 6.1 | 0.0 | 0.00 | 0.00 | 0.00 | 72 | 1007.1 |
| 20260506110038 | 59 | 294 | 6.1 | 0.0 | 0.00 | 0.00 | 0.00 | 71 | 1007.1 |
| 20260506104528 | 59 | 77 | 4.3 | 0.0 | 0.00 | 0.00 | 0.00 | 71 | 1007.1 |
| 20260506103025 | 58 | 337 | 5.2 | 0.0 | 0.00 | 0.00 | 0.00 | 72 | 1007.0 |
| 20260506101529 | 57 | 277 | 3.5 | 0.0 | 0.00 | 0.00 | 0.00 | 74 | 1007.0 |
| 20260506100023 | 57 | 49 | 4.3 | 0.0 | 0.00 | 0.00 | 0.00 | 75 | 1006.9 |
| 20260506094526 | 57 | 19 | 4.3 | 0.0 | 0.00 | 0.00 | 0.00 | 71 | 1007.0 |
| 20260506093031 | 58 | 38 | 4.3 | 0.0 | 0.00 | 0.00 | 0.00 | 72 | 1007.1 |
| 20260506091520 | 57 | 46 | 4.3 | 0.0 | 0.00 | 0.00 | 0.00 | 76 | 1007.1 |
| 20260506090016 | 57 | 19 | 5.2 | 0.0 | 0.00 | 0.00 | 0.00 | 77 | 1006.9 |
| 20260506084513 | 55 | 17 | 5.2 | 0.0 | 0.00 | 0.00 | 0.00 | 78 | 1006.8 |
| 20260506083010 | 55 | 53 | 5.2 | 0.0 | 0.00 | 0.00 | 0.00 | 80 | 1006.8 |
| 20260506081513 | 54 | 58 | 5.2 | 0.0 | 0.00 | 0.00 | 0.00 | 83 | 1006.7 |
| 20260506073057 | 52 | 347 | 3.5 | 0.0 | 0.00 | 0.00 | 0.00 | 85 | 1006.7 |
| 20260506071555 | 52 | 0.0 | 0.0 | 0.00 | 0.00 | 0.00 | 86 | 1006.6 | |
| 20260506061547 | 50 | 0.0 | 0.0 | 0.00 | 0.00 | 0.00 | 89 | 1006.4 | |
| 20260506044526 | 50 | 0.0 | 0.0 | 0.00 | 0.00 | 0.00 | 85 | 1006.5 | |
| 20260506043016 | 51 | 0.0 | 0.0 | 0.00 | 0.00 | 0.00 | 83 | 1006.4 | |
| 20260506041511 | 51 | 0.0 | 0.0 | 0.00 | 0.00 | 0.00 | 82 | 1006.3 | |
| 20260506040007 | 51 | 0.0 | 0.0 | 0.00 | 0.00 | 0.00 | 81 | 1006.4 | |
| 20260506034504 | 50 | 0.0 | 0.0 | 0.00 | 0.00 | 0.00 | 80 | 1006.4 | |
| 20260506033058 | 50 | 0.0 | 0.0 | 0.00 | 0.00 | 0.00 | 79 | 1006.5 | |
| 20260506031558 | 50 | 0.0 | 0.0 | 0.00 | 0.00 | 0.00 | 81 | 1006.6 | |
| 20260506030051 | 50 | 0.0 | 0.0 | 0.00 | 0.00 | 0.00 | 81 | 1006.7 | |
| 20260506024552 | 50 | 0.0 | 0.0 | 0.00 | 0.00 | 0.00 | 81 | 1006.9 | |
| 20260506023039 | 50 | 0.0 | 0.0 | 0.00 | 0.00 | 0.00 | 80 | 1007.0 | |
| 20260506021534 | 50 | 0.0 | 0.0 | 0.00 | 0.00 | 0.00 | 80 | 1006.9 | |
| 20260506020034 | 49 | 0.0 | 0.0 | 0.00 | 0.00 | 0.00 | 80 | 1007.0 | |
| 20260506014526 | 49 | 0.0 | 0.0 | 0.00 | 0.00 | 0.00 | 80 | 1007.1 | |
| 20260506013025 | 49 | 0.0 | 0.0 | 0.00 | 0.00 | 0.00 | 80 | 1007.1 | |
| 20260506011521 | 49 | 0.0 | 0.0 | 0.00 | 0.00 | 0.00 | 81 | 1007.1 | |
| 20260506010043 | 49 | 0.0 | 0.0 | 0.00 | 0.00 | 0.00 | 81 | 1007.0 | |
| 20260506004513 | 49 | 0.0 | 0.0 | 0.00 | 0.00 | 0.00 | 80 | 1007.2 | |
| 20260506003011 | 49 | 0.0 | 0.0 | 0.00 | 0.00 | 0.00 | 80 | 1007.4 | |
| 20260506001506 | 49 | 0.0 | 0.0 | 0.00 | 0.00 | 0.00 | 79 | 1007.6 | |
| 20260506000002 | 49 | 0.0 | 0.0 | 0.00 | 0.00 | 0.00 | 79 | 1007.6 | |
| 20260505234558 | 49 | 0.0 | 0.0 | 0.00 | 0.00 | 0.00 | 79 | 1007.7 | |
| 20260505233022 | 49 | 0.0 | 0.0 | 0.00 | 0.00 | 0.00 | 80 | 1007.7 | |
| 20260505231518 | 49 | 0.0 | 0.0 | 0.00 | 0.00 | 0.00 | 80 | 1007.9 | |
| 20260505230020 | 49 | 0.0 | 0.0 | 0.00 | 0.00 | 0.00 | 79 | 1008.0 | |
| 20260505224510 | 50 | 0.0 | 0.0 | 0.00 | 0.00 | 0.00 | 79 | 1008.0 | |
| 20260505223046 | 50 | 0.0 | 0.0 | 0.00 | 0.00 | 0.00 | 79 | 1008.0 | |
| 20260505221537 | 50 | 0.0 | 0.0 | 0.00 | 0.00 | 0.00 | 79 | 1008.0 | |
| 20260505220032 | 50 | 0.0 | 0.0 | 0.00 | 0.00 | 0.00 | 79 | 1008.1 | |
| 20260505214529 | 50 | 0.0 | 0.0 | 0.00 | 0.00 | 0.00 | 79 | 1008.2 | |
| 20260505213024 | 51 | 0.0 | 0.0 | 0.00 | 0.00 | 0.00 | 78 | 1008.2 | |
| 20260505211517 | 51 | 0.0 | 0.0 | 0.00 | 0.00 | 0.00 | 78 | 1008.2 | |
| 20260505210008 | 52 | 0.0 | 0.0 | 0.00 | 0.00 | 0.00 | 79 | 1008.3 | |
| 20260505204504 | 52 | 0.0 | 0.0 | 0.00 | 0.00 | 0.00 | 79 | 1008.3 |